createdAt,value
2019-01-20T00:00:33.364Z,-3.90
2019-01-20T00:01:08.093Z,-3.90
2019-01-20T00:01:41.004Z,-3.90
2019-01-20T00:02:13.828Z,-4.00
2019-01-20T00:02:46.299Z,-4.00
2019-01-20T00:03:18.780Z,-3.90
2019-01-20T00:03:51.563Z,-3.90
2019-01-20T00:04:24.427Z,-3.90
2019-01-20T00:04:57.294Z,-3.90
2019-01-20T00:05:29.779Z,-3.90
2019-01-20T00:06:02.243Z,-3.90
2019-01-20T00:06:34.724Z,-3.90
2019-01-20T00:07:07.199Z,-3.90
2019-01-20T00:07:39.772Z,-3.90
2019-01-20T00:08:12.236Z,-3.90
2019-01-20T00:08:44.702Z,-3.90
2019-01-20T00:09:17.173Z,-3.90
2019-01-20T00:09:49.960Z,-3.90
2019-01-20T00:10:22.780Z,-4.00
2019-01-20T00:10:55.264Z,-3.90
2019-01-20T00:11:28.050Z,-3.90
2019-01-20T00:12:00.543Z,-3.90
2019-01-20T00:12:32.995Z,-4.00
2019-01-20T00:13:05.575Z,-3.90
2019-01-20T00:13:38.034Z,-3.90
2019-01-20T00:14:10.510Z,-4.00
2019-01-20T00:14:43.364Z,-3.90
2019-01-20T00:15:16.346Z,-3.90
2019-01-20T00:15:49.176Z,-3.90
2019-01-20T00:16:21.661Z,-3.90
2019-01-20T00:16:54.123Z,-3.90
2019-01-20T00:17:26.873Z,-4.00
2019-01-20T00:17:59.429Z,-4.00
2019-01-20T00:18:32.294Z,-4.00
2019-01-20T00:19:04.775Z,-4.10
2019-01-20T00:19:37.240Z,-4.10
2019-01-20T00:20:09.732Z,-4.20
2019-01-20T00:20:42.184Z,-4.20
2019-01-20T00:21:14.695Z,-4.20
2019-01-20T00:21:47.466Z,-4.10
2019-01-20T00:22:19.948Z,-4.10
2019-01-20T00:22:52.704Z,-4.10
2019-01-20T00:23:25.168Z,-4.10
2019-01-20T00:23:57.641Z,-4.10
2019-01-20T00:24:30.906Z,-4.10
2019-01-20T00:25:04.624Z,-4.10
2019-01-20T00:25:37.462Z,-4.00
2019-01-20T00:26:10.037Z,-4.00
2019-01-20T00:26:42.908Z,-4.00
2019-01-20T00:27:15.358Z,-4.00
2019-01-20T00:27:47.840Z,-4.00
2019-01-20T00:28:20.696Z,-4.00
2019-01-20T00:28:53.159Z,-4.00
2019-01-20T00:29:25.639Z,-4.00
2019-01-20T00:29:58.513Z,-4.00
2019-01-20T00:30:30.988Z,-4.00
2019-01-20T00:31:03.767Z,-4.00
2019-01-20T00:31:36.242Z,-4.00
2019-01-20T00:32:09.037Z,-4.00
2019-01-20T00:32:41.502Z,-4.00
2019-01-20T00:33:13.977Z,-4.00
2019-01-20T00:33:46.446Z,-4.00
2019-01-20T00:34:18.991Z,-4.00
2019-01-20T00:34:51.499Z,-4.00
2019-01-20T00:35:24.046Z,-4.00
2019-01-20T00:35:56.514Z,-4.00
2019-01-20T00:36:28.990Z,-4.00
2019-01-20T00:37:01.458Z,-4.00
2019-01-20T00:37:34.391Z,-4.00
2019-01-20T00:38:07.538Z,-4.00
2019-01-20T00:38:40.388Z,-4.00
2019-01-20T00:39:13.184Z,-4.00
2019-01-20T00:39:45.656Z,-4.00
2019-01-20T00:40:18.123Z,-4.00
2019-01-20T00:40:50.592Z,-4.00
2019-01-20T00:41:24.320Z,-4.00
2019-01-20T00:41:57.040Z,-4.00
2019-01-20T00:42:29.895Z,-4.00
2019-01-20T00:43:02.390Z,-4.00
2019-01-20T00:43:34.869Z,-4.00
2019-01-20T00:44:07.369Z,-4.00
2019-01-20T00:44:39.843Z,-4.00
2019-01-20T00:45:14.271Z,-4.00
2019-01-20T00:45:47.523Z,-4.00
2019-01-20T00:46:20.291Z,-3.90
2019-01-20T00:46:52.763Z,-3.90
2019-01-20T00:47:25.233Z,-3.90
2019-01-20T00:47:58.491Z,-3.90
2019-01-20T00:48:31.372Z,-3.90
2019-01-20T00:49:04.340Z,-3.90
2019-01-20T00:49:36.811Z,-4.00
2019-01-20T00:50:10.286Z,-3.90
2019-01-20T00:50:42.768Z,-3.90
2019-01-20T00:51:15.229Z,-3.90
2019-01-20T00:51:48.071Z,-3.90
2019-01-20T00:52:20.534Z,-3.90
2019-01-20T00:52:53.011Z,-3.90
2019-01-20T00:53:25.477Z,-3.90
2019-01-20T00:53:59.148Z,-3.90
2019-01-20T00:54:31.619Z,-3.90
2019-01-20T00:55:05.812Z,-3.90
2019-01-20T00:55:38.276Z,-3.90
2019-01-20T00:56:11.104Z,-3.90
2019-01-20T00:56:43.912Z,-3.80
2019-01-20T00:57:16.383Z,-3.80
2019-01-20T00:57:49.334Z,-3.80
2019-01-20T00:58:21.808Z,-3.80
2019-01-20T00:58:54.263Z,-3.80
2019-01-20T00:59:26.778Z,-3.70
2019-01-20T00:59:59.244Z,-3.70
2019-01-20T01:00:32.519Z,-3.70
2019-01-20T01:01:05.215Z,-3.60
2019-01-20T01:01:37.722Z,-3.70
2019-01-20T01:02:10.593Z,-3.60
2019-01-20T01:02:43.439Z,-3.60
2019-01-20T01:03:16.513Z,-3.60
2019-01-20T01:03:48.981Z,-3.60
2019-01-20T01:04:21.443Z,-3.60
2019-01-20T01:04:53.968Z,-3.50
2019-01-20T01:05:26.879Z,-3.60
2019-01-20T01:05:59.355Z,-3.60
2019-01-20T01:06:31.823Z,-3.60
2019-01-20T01:07:05.290Z,-3.60
2019-01-20T01:07:37.762Z,-3.60
2019-01-20T01:08:10.671Z,-3.60
2019-01-20T01:08:43.152Z,-3.70
2019-01-20T01:09:15.614Z,-3.70
2019-01-20T01:09:48.075Z,-3.60
2019-01-20T01:10:20.691Z,-3.60
2019-01-20T01:10:53.515Z,-3.60
2019-01-20T01:11:31.523Z,-3.60
2019-01-20T01:12:00.578Z,-3.50
2019-01-20T01:12:33.795Z,-3.50
2019-01-20T01:13:06.380Z,-3.50
2019-01-20T01:13:39.158Z,-3.50
2019-01-20T01:14:11.629Z,-3.50
2019-01-20T01:14:44.110Z,-3.50
2019-01-20T01:15:16.903Z,-3.50
2019-01-20T01:15:49.402Z,-3.50
2019-01-20T01:16:22.168Z,-3.50
2019-01-20T01:16:54.639Z,-3.50
2019-01-20T01:17:27.116Z,-3.40
2019-01-20T01:17:59.596Z,-3.40
2019-01-20T01:18:32.065Z,-3.40
2019-01-20T01:19:04.839Z,-3.40
2019-01-20T01:19:37.315Z,-3.40
2019-01-20T01:20:11.208Z,-3.40
2019-01-20T01:20:43.674Z,-3.40
2019-01-20T01:21:16.180Z,-3.40
2019-01-20T01:21:48.655Z,-3.50
2019-01-20T01:22:21.125Z,-3.40
2019-01-20T01:22:53.904Z,-3.40
2019-01-20T01:23:26.377Z,-3.40
2019-01-20T01:23:58.864Z,-3.40
2019-01-20T01:24:31.321Z,-3.50
2019-01-20T01:25:05.411Z,-3.50
2019-01-20T01:25:37.875Z,-3.50
2019-01-20T01:26:10.715Z,-3.50
2019-01-20T01:26:43.615Z,-3.50
2019-01-20T01:27:16.088Z,-3.50
2019-01-20T01:27:48.559Z,-3.60
2019-01-20T01:28:21.034Z,-3.60
2019-01-20T01:28:53.515Z,-3.60
2019-01-20T01:29:26.301Z,-3.60
2019-01-20T01:29:59.166Z,-3.60
2019-01-20T01:30:31.659Z,-3.60
2019-01-20T01:31:04.209Z,-3.70
2019-01-20T01:31:36.620Z,-3.60
2019-01-20T01:32:09.605Z,-3.60
2019-01-20T01:32:42.091Z,-3.60
2019-01-20T01:33:14.848Z,-3.60
2019-01-20T01:33:47.306Z,-3.60
2019-01-20T01:34:20.087Z,-3.60
2019-01-20T01:34:52.611Z,-3.60
2019-01-20T01:35:25.079Z,-3.60
2019-01-20T01:35:57.567Z,-3.60
2019-01-20T01:36:30.391Z,-3.60
2019-01-20T01:37:02.872Z,-3.60
2019-01-20T01:37:35.358Z,-3.60
2019-01-20T01:38:07.826Z,-3.60
2019-01-20T01:38:40.285Z,-3.60
2019-01-20T01:39:12.767Z,-3.60
2019-01-20T01:39:45.228Z,-3.50
2019-01-20T01:40:18.343Z,-3.50
2019-01-20T01:40:51.268Z,-3.50
2019-01-20T01:41:23.726Z,-3.60
2019-01-20T01:41:56.591Z,-3.60
2019-01-20T01:42:29.041Z,-3.60
2019-01-20T01:43:01.556Z,-3.60
2019-01-20T01:43:34.511Z,-3.60
2019-01-20T01:44:06.978Z,-3.60
2019-01-20T01:44:39.568Z,-3.60
2019-01-20T01:45:14.927Z,-3.60
2019-01-20T01:45:47.521Z,-3.60
2019-01-20T01:46:19.999Z,-3.60
2019-01-20T01:46:52.463Z,-3.60
2019-01-20T01:47:25.310Z,-3.60
2019-01-20T01:47:57.784Z,-3.60
2019-01-20T01:48:30.899Z,-3.60
2019-01-20T01:49:03.677Z,-3.60
2019-01-20T01:49:36.147Z,-3.70
2019-01-20T01:50:09.447Z,-3.70
2019-01-20T01:50:42.202Z,-3.70
2019-01-20T01:51:14.666Z,-3.70
2019-01-20T01:51:47.144Z,-3.70
2019-01-20T01:52:19.628Z,-3.70
2019-01-20T01:52:52.091Z,-3.70
2019-01-20T01:53:24.546Z,-3.70
2019-01-20T01:53:57.067Z,-3.70
2019-01-20T01:54:29.526Z,-3.70
2019-01-20T01:55:01.981Z,-3.70
2019-01-20T01:55:34.444Z,-3.70
2019-01-20T01:56:06.928Z,-3.70
2019-01-20T01:56:39.382Z,-3.70
2019-01-20T01:57:12.236Z,-3.70
2019-01-20T01:57:44.716Z,-3.70
2019-01-20T01:58:17.504Z,-3.70
2019-01-20T01:58:49.983Z,-3.70
2019-01-20T01:59:22.801Z,-3.70
2019-01-20T01:59:55.666Z,-3.70
2019-01-20T02:00:28.471Z,-3.70
2019-01-20T02:01:00.948Z,-3.70
2019-01-20T02:01:33.774Z,-3.70
2019-01-20T02:02:06.240Z,-3.70
2019-01-20T02:02:39.316Z,-3.70
2019-01-20T02:03:12.363Z,-3.70
2019-01-20T02:03:44.835Z,-3.70
2019-01-20T02:04:17.311Z,-3.80
2019-01-20T02:04:49.820Z,-3.80
2019-01-20T02:05:22.283Z,-3.80
2019-01-20T02:05:55.031Z,-3.80
2019-01-20T02:06:27.903Z,-3.80
2019-01-20T02:07:00.661Z,-3.70
2019-01-20T02:07:33.440Z,-3.70
2019-01-20T02:08:06.185Z,-3.70
2019-01-20T02:08:38.664Z,-3.80
2019-01-20T02:09:11.508Z,-3.80
2019-01-20T02:09:44.688Z,-3.80
2019-01-20T02:10:19.611Z,-3.80
2019-01-20T02:10:52.099Z,-3.80
2019-01-20T02:11:24.554Z,-3.80
2019-01-20T02:11:57.401Z,-3.80
2019-01-20T02:12:30.188Z,-3.80
2019-01-20T02:13:02.761Z,-3.90
2019-01-20T02:13:35.234Z,-3.90
2019-01-20T02:14:07.999Z,-3.90
2019-01-20T02:14:40.475Z,-3.80
2019-01-20T02:15:14.625Z,-3.90
2019-01-20T02:15:47.135Z,-3.80
2019-01-20T02:16:20.041Z,-3.80
2019-01-20T02:16:52.508Z,-3.80
2019-01-20T02:17:24.978Z,-3.90
2019-01-20T02:17:57.468Z,-4.00
2019-01-20T02:18:29.930Z,-3.90
2019-01-20T02:19:02.397Z,-3.90
2019-01-20T02:19:35.230Z,-3.90
2019-01-20T02:20:10.156Z,-3.90
2019-01-20T02:20:42.634Z,-3.80
2019-01-20T02:21:15.431Z,-3.80
2019-01-20T02:21:48.197Z,-3.80
2019-01-20T02:22:20.662Z,-3.80
2019-01-20T02:22:53.462Z,-3.80
2019-01-20T02:23:25.944Z,-3.80
2019-01-20T02:23:58.858Z,-3.70
2019-01-20T02:24:31.687Z,-3.70
2019-01-20T02:25:04.622Z,-3.70
2019-01-20T02:25:37.415Z,-3.70
2019-01-20T02:26:09.885Z,-3.70
2019-01-20T02:26:42.663Z,-3.70
2019-01-20T02:27:15.502Z,-3.70
2019-01-20T02:27:48.174Z,-3.70
2019-01-20T02:28:20.663Z,-3.70
2019-01-20T02:28:53.499Z,-3.70
2019-01-20T02:29:25.966Z,-3.70
2019-01-20T02:29:58.426Z,-3.70
2019-01-20T02:30:30.908Z,-3.70
2019-01-20T02:31:03.499Z,-3.70
2019-01-20T02:31:35.963Z,-3.70
2019-01-20T02:32:09.190Z,-3.70
2019-01-20T02:32:41.982Z,-3.60
2019-01-20T02:33:14.822Z,-3.60
2019-01-20T02:33:47.420Z,-3.70
2019-01-20T02:34:19.916Z,-3.70
2019-01-20T02:34:52.355Z,-3.70
2019-01-20T02:35:25.332Z,-3.60
2019-01-20T02:35:57.815Z,-3.60
2019-01-20T02:36:30.292Z,-3.60
2019-01-20T02:37:03.385Z,-3.70
2019-01-20T02:37:35.898Z,-3.60
2019-01-20T02:38:08.470Z,-3.60
2019-01-20T02:38:40.948Z,-3.60
2019-01-20T02:39:13.424Z,-3.60
2019-01-20T02:39:45.908Z,-3.60
2019-01-20T02:40:18.369Z,-3.70
2019-01-20T02:40:50.849Z,-3.60
2019-01-20T02:41:23.309Z,-3.60
2019-01-20T02:41:55.785Z,-3.60
2019-01-20T02:42:29.021Z,-3.70
2019-01-20T02:43:01.890Z,-3.70
2019-01-20T02:43:34.652Z,-3.70
2019-01-20T02:44:07.133Z,-3.70
2019-01-20T02:44:39.601Z,-3.80
2019-01-20T02:45:12.776Z,-3.80
2019-01-20T02:45:45.238Z,-3.80
2019-01-20T02:46:17.747Z,-3.80
2019-01-20T02:46:50.337Z,-3.80
2019-01-20T02:47:22.825Z,-3.80
2019-01-20T02:47:55.745Z,-3.80
2019-01-20T02:48:28.237Z,-3.80
2019-01-20T02:49:00.716Z,-3.80
2019-01-20T02:49:33.174Z,-3.70
2019-01-20T02:50:07.180Z,-3.70
2019-01-20T02:50:40.440Z,-3.70
2019-01-20T02:51:12.902Z,-3.70
2019-01-20T02:51:45.374Z,-3.70
2019-01-20T02:52:17.864Z,-3.70
2019-01-20T02:52:50.653Z,-3.60
2019-01-20T02:53:23.399Z,-3.70
2019-01-20T02:53:55.905Z,-3.70
2019-01-20T02:54:28.637Z,-3.70
2019-01-20T02:55:01.106Z,-3.70
2019-01-20T02:55:33.577Z,-3.70
2019-01-20T02:56:06.054Z,-3.70
2019-01-20T02:56:38.963Z,-3.70
2019-01-20T02:57:11.421Z,-3.80
2019-01-20T02:57:44.269Z,-3.80
2019-01-20T02:58:16.729Z,-3.80
2019-01-20T02:58:49.203Z,-3.80
2019-01-20T02:59:22.126Z,-3.80
2019-01-20T02:59:54.720Z,-3.90
2019-01-20T03:00:27.195Z,-3.90
2019-01-20T03:00:59.659Z,-4.00
2019-01-20T03:01:32.518Z,-4.00
2019-01-20T03:02:05.283Z,-4.00
2019-01-20T03:02:38.060Z,-4.00
2019-01-20T03:03:10.521Z,-4.10
2019-01-20T03:03:43.000Z,-4.00
2019-01-20T03:04:15.851Z,-4.10
2019-01-20T03:04:48.346Z,-4.10
2019-01-20T03:05:22.432Z,-4.00
2019-01-20T03:05:55.261Z,-4.00
2019-01-20T03:06:27.748Z,-4.00
2019-01-20T03:07:00.616Z,-4.00
2019-01-20T03:07:33.443Z,-3.90
2019-01-20T03:08:05.916Z,-4.00
2019-01-20T03:08:38.735Z,-4.00
2019-01-20T03:09:11.578Z,-3.90
2019-01-20T03:09:44.055Z,-3.90
2019-01-20T03:10:16.871Z,-3.90
2019-01-20T03:10:49.357Z,-3.90
2019-01-20T03:11:21.842Z,-3.90
2019-01-20T03:11:54.309Z,-3.90
2019-01-20T03:12:26.927Z,-3.90
2019-01-20T03:12:59.403Z,-3.90
2019-01-20T03:13:31.896Z,-3.90
2019-01-20T03:14:04.658Z,-3.90
2019-01-20T03:14:37.126Z,-3.90
2019-01-20T03:15:09.918Z,-3.90
2019-01-20T03:15:42.734Z,-3.90
2019-01-20T03:16:15.213Z,-3.90
2019-01-20T03:16:48.051Z,-3.90
2019-01-20T03:17:20.526Z,-3.90
2019-01-20T03:17:53.027Z,-3.90
2019-01-20T03:18:25.468Z,-3.90
2019-01-20T03:18:58.415Z,-3.90
2019-01-20T03:19:30.990Z,-3.90
2019-01-20T03:20:06.173Z,-3.90
2019-01-20T03:20:38.645Z,-4.00
2019-01-20T03:21:11.142Z,-4.00
2019-01-20T03:21:43.607Z,-4.10
2019-01-20T03:22:16.074Z,-4.00
2019-01-20T03:22:48.548Z,-4.00
2019-01-20T03:23:21.013Z,-4.10
2019-01-20T03:23:53.476Z,-4.10
2019-01-20T03:24:26.319Z,-4.10
2019-01-20T03:24:58.796Z,-4.00
2019-01-20T03:25:31.249Z,-4.00
2019-01-20T03:26:03.928Z,-4.00
2019-01-20T03:26:36.430Z,-4.00
2019-01-20T03:27:09.238Z,-4.00
2019-01-20T03:27:41.700Z,-4.00
2019-01-20T03:28:14.563Z,-4.00
2019-01-20T03:28:47.038Z,-3.90
2019-01-20T03:29:19.794Z,-3.90
2019-01-20T03:29:52.572Z,-3.90
2019-01-20T03:30:25.189Z,-3.90
2019-01-20T03:30:57.681Z,-4.00
2019-01-20T03:31:30.150Z,-3.90
2019-01-20T03:32:02.679Z,-3.90
2019-01-20T03:32:35.130Z,-3.90
2019-01-20T03:33:07.606Z,-3.90
2019-01-20T03:33:40.062Z,-3.90
2019-01-20T03:34:13.176Z,-3.90
2019-01-20T03:34:45.652Z,-3.90
2019-01-20T03:35:22.419Z,-4.00
2019-01-20T03:35:54.894Z,-3.90
2019-01-20T03:36:27.359Z,-4.00
2019-01-20T03:36:59.833Z,-4.00
2019-01-20T03:37:33.322Z,-4.00
2019-01-20T03:38:06.304Z,-4.00
2019-01-20T03:38:38.765Z,-4.00
2019-01-20T03:39:11.233Z,-4.00
2019-01-20T03:39:43.725Z,-4.00
2019-01-20T03:40:16.758Z,-3.90
2019-01-20T03:40:49.220Z,-3.90
2019-01-20T03:41:22.187Z,-3.90
2019-01-20T03:41:54.665Z,-4.00
2019-01-20T03:42:27.131Z,-4.10
2019-01-20T03:42:59.640Z,-4.10
2019-01-20T03:43:32.115Z,-4.10
2019-01-20T03:44:04.666Z,-4.10
2019-01-20T03:44:37.130Z,-4.10
2019-01-20T03:45:12.183Z,-4.10
2019-01-20T03:45:44.983Z,-4.10
2019-01-20T03:46:17.489Z,-4.00
2019-01-20T03:46:49.968Z,-4.00
2019-01-20T03:47:22.463Z,-4.00
2019-01-20T03:47:54.941Z,-4.00
2019-01-20T03:48:27.444Z,-4.00
2019-01-20T03:48:59.901Z,-4.00
2019-01-20T03:49:32.746Z,-4.00
2019-01-20T03:50:06.306Z,-4.00
2019-01-20T03:50:38.771Z,-4.10
2019-01-20T03:51:11.650Z,-4.00
2019-01-20T03:51:44.482Z,-4.00
2019-01-20T03:52:16.952Z,-4.10
2019-01-20T03:52:49.422Z,-4.10
2019-01-20T03:53:21.885Z,-4.20
2019-01-20T03:53:54.382Z,-4.10
2019-01-20T03:54:26.889Z,-4.10
2019-01-20T03:54:59.347Z,-4.10
2019-01-20T03:55:32.209Z,-4.10
2019-01-20T03:56:04.674Z,-4.10
2019-01-20T03:56:37.160Z,-4.10
2019-01-20T03:57:09.636Z,-4.10
2019-01-20T03:57:42.207Z,-4.10
2019-01-20T03:58:14.690Z,-4.10
2019-01-20T03:58:47.165Z,-4.10
2019-01-20T03:59:19.996Z,-4.10
2019-01-20T03:59:52.456Z,-4.10
2019-01-20T04:00:25.224Z,-4.10
2019-01-20T04:00:58.092Z,-4.10
2019-01-20T04:01:30.562Z,-4.00
2019-01-20T04:02:03.149Z,-4.00
2019-01-20T04:02:35.983Z,-4.00
2019-01-20T04:03:08.662Z,-4.00
2019-01-20T04:03:41.114Z,-4.00
2019-01-20T04:04:13.969Z,-4.00
2019-01-20T04:04:46.982Z,-4.00
2019-01-20T04:05:19.437Z,-4.00
2019-01-20T04:05:52.280Z,-4.00
2019-01-20T04:06:24.744Z,-4.00
2019-01-20T04:06:57.580Z,-4.00
2019-01-20T04:07:30.385Z,-4.00
2019-01-20T04:08:03.071Z,-4.00
2019-01-20T04:08:35.564Z,-4.00
2019-01-20T04:09:08.044Z,-4.00
2019-01-20T04:09:40.515Z,-4.00
2019-01-20T04:10:13.244Z,-4.00
2019-01-20T04:10:45.724Z,-4.10
2019-01-20T04:11:18.211Z,-4.10
2019-01-20T04:11:50.677Z,-4.10
2019-01-20T04:12:23.156Z,-4.10
2019-01-20T04:12:56.429Z,-4.10
2019-01-20T04:13:29.765Z,-4.10
2019-01-20T04:14:02.238Z,-4.10
2019-01-20T04:14:34.693Z,-4.00
2019-01-20T04:15:07.567Z,-4.00
2019-01-20T04:15:40.453Z,-4.10
2019-01-20T04:16:12.931Z,-4.10
2019-01-20T04:16:45.402Z,-4.10
2019-01-20T04:17:18.210Z,-4.10
2019-01-20T04:17:50.690Z,-4.10
2019-01-20T04:18:23.527Z,-4.00
2019-01-20T04:18:56.363Z,-4.10
2019-01-20T04:19:28.841Z,-4.10
2019-01-20T04:20:01.316Z,-4.10
2019-01-20T04:20:33.791Z,-4.00
2019-01-20T04:21:06.298Z,-4.00
2019-01-20T04:21:38.894Z,-4.00
2019-01-20T04:22:11.353Z,-4.00
2019-01-20T04:22:43.823Z,-4.00
2019-01-20T04:23:16.996Z,-4.00
2019-01-20T04:23:50.188Z,-4.00
2019-01-20T04:24:22.828Z,-4.10
2019-01-20T04:24:55.721Z,-4.10
2019-01-20T04:25:28.183Z,-4.10
2019-01-20T04:26:01.528Z,-4.10
2019-01-20T04:26:34.019Z,-4.10
2019-01-20T04:27:06.497Z,-4.00
2019-01-20T04:27:39.420Z,-4.10
2019-01-20T04:28:11.902Z,-4.00
2019-01-20T04:28:44.376Z,-4.00
2019-01-20T04:29:16.856Z,-4.00
2019-01-20T04:29:49.324Z,-4.10
2019-01-20T04:30:21.802Z,-4.10
2019-01-20T04:30:54.276Z,-4.10
2019-01-20T04:31:26.749Z,-4.10
2019-01-20T04:31:59.610Z,-4.10
2019-01-20T04:32:32.502Z,-4.10
2019-01-20T04:33:04.960Z,-4.10
2019-01-20T04:33:37.805Z,-4.10
2019-01-20T04:34:10.283Z,-4.10
2019-01-20T04:34:42.747Z,-4.10
2019-01-20T04:35:15.612Z,-4.10
2019-01-20T04:35:48.091Z,-4.10
2019-01-20T04:36:20.555Z,-4.10
2019-01-20T04:36:53.025Z,-4.10
2019-01-20T04:37:25.526Z,-4.10
2019-01-20T04:37:58.455Z,-4.10
2019-01-20T04:38:30.890Z,-4.10
2019-01-20T04:39:06.122Z,-4.10
2019-01-20T04:39:38.598Z,-4.10
2019-01-20T04:40:14.024Z,-4.10
2019-01-20T04:40:46.509Z,-4.10
2019-01-20T04:41:18.993Z,-4.20
2019-01-20T04:41:51.802Z,-4.20
2019-01-20T04:42:28.910Z,-4.20
2019-01-20T04:42:58.591Z,-4.10
2019-01-20T04:43:31.437Z,-4.20
2019-01-20T04:44:04.212Z,-4.10
2019-01-20T04:44:36.686Z,-4.10
2019-01-20T04:45:10.463Z,-4.10
2019-01-20T04:45:42.922Z,-4.10
2019-01-20T04:46:15.683Z,-4.10
2019-01-20T04:46:48.149Z,-4.10
2019-01-20T04:47:20.742Z,-4.10
2019-01-20T04:47:53.892Z,-4.20
2019-01-20T04:48:26.395Z,-4.10
2019-01-20T04:48:58.873Z,-4.10
2019-01-20T04:49:31.641Z,-4.10
2019-01-20T04:50:06.487Z,-4.10
2019-01-20T04:50:38.966Z,-4.10
2019-01-20T04:51:12.014Z,-4.10
2019-01-20T04:51:44.506Z,-4.10
2019-01-20T04:52:17.333Z,-4.10
2019-01-20T04:52:49.808Z,-4.00
2019-01-20T04:53:22.574Z,-4.10
2019-01-20T04:53:55.513Z,-4.10
2019-01-20T04:54:27.968Z,-4.10
2019-01-20T04:55:00.483Z,-4.20
2019-01-20T04:55:33.351Z,-4.20
2019-01-20T04:56:05.814Z,-4.20
2019-01-20T04:56:38.288Z,-4.20
2019-01-20T04:57:11.667Z,-4.20
2019-01-20T04:57:48.435Z,-4.30
2019-01-20T04:58:21.009Z,-4.30
2019-01-20T04:58:53.747Z,-4.30
2019-01-20T04:59:26.238Z,-4.50
2019-01-20T04:59:59.383Z,-4.50
2019-01-20T05:00:31.863Z,-4.50
2019-01-20T05:01:04.344Z,-4.60
2019-01-20T05:01:36.822Z,-4.60
2019-01-20T05:02:09.291Z,-4.60
2019-01-20T05:02:41.761Z,-4.50
2019-01-20T05:03:14.554Z,-4.50
2019-01-20T05:03:47.023Z,-4.50
2019-01-20T05:04:19.494Z,-4.50
2019-01-20T05:04:51.995Z,-4.40
2019-01-20T05:05:25.061Z,-4.50
2019-01-20T05:05:57.510Z,-4.40
2019-01-20T05:06:29.966Z,-4.40
2019-01-20T05:07:02.878Z,-4.40
2019-01-20T05:07:35.628Z,-4.40
2019-01-20T05:08:08.442Z,-4.40
2019-01-20T05:08:40.920Z,-4.30
2019-01-20T05:09:13.407Z,-4.30
2019-01-20T05:09:45.866Z,-4.40
2019-01-20T05:10:18.491Z,-4.40
2019-01-20T05:10:50.967Z,-4.40
2019-01-20T05:11:23.443Z,-4.40
2019-01-20T05:11:56.302Z,-4.30
2019-01-20T05:12:28.758Z,-4.40
2019-01-20T05:13:01.218Z,-4.40
2019-01-20T05:13:33.682Z,-4.40
2019-01-20T05:14:06.534Z,-4.50
2019-01-20T05:14:39.032Z,-4.50
2019-01-20T05:15:14.029Z,-4.50
2019-01-20T05:15:46.549Z,-4.40
2019-01-20T05:16:19.026Z,-4.40
2019-01-20T05:16:51.500Z,-4.40
2019-01-20T05:17:24.254Z,-4.40
2019-01-20T05:17:57.032Z,-4.40
2019-01-20T05:18:29.943Z,-4.40
2019-01-20T05:19:02.440Z,-4.40
2019-01-20T05:19:35.247Z,-4.40
2019-01-20T05:20:08.036Z,-4.40
2019-01-20T05:20:41.241Z,-4.40
2019-01-20T05:21:14.053Z,-4.40
2019-01-20T05:21:46.522Z,-4.50
2019-01-20T05:22:18.999Z,-4.50
2019-01-20T05:22:51.484Z,-4.70
2019-01-20T05:23:23.964Z,-4.70
2019-01-20T05:23:56.454Z,-4.70
2019-01-20T05:24:29.340Z,-4.70
2019-01-20T05:25:01.813Z,-4.70
2019-01-20T05:25:34.288Z,-4.70
2019-01-20T05:26:06.772Z,-4.70
2019-01-20T05:26:39.278Z,-4.70
2019-01-20T05:27:11.752Z,-4.60
2019-01-20T05:27:44.228Z,-4.60
2019-01-20T05:28:16.686Z,-4.60
2019-01-20T05:28:49.502Z,-4.60
2019-01-20T05:29:21.983Z,-4.50
2019-01-20T05:29:54.551Z,-4.50
2019-01-20T05:30:27.035Z,-4.50
2019-01-20T05:30:59.774Z,-4.50
2019-01-20T05:31:32.247Z,-4.50
2019-01-20T05:32:05.124Z,-4.40
2019-01-20T05:32:37.594Z,-4.40
2019-01-20T05:33:10.042Z,-4.40
2019-01-20T05:33:42.806Z,-4.40
2019-01-20T05:34:15.266Z,-4.40
2019-01-20T05:34:47.740Z,-4.40
2019-01-20T05:35:20.235Z,-4.40
2019-01-20T05:35:52.716Z,-4.40
2019-01-20T05:36:25.179Z,-4.50
2019-01-20T05:36:58.401Z,-4.40
2019-01-20T05:37:30.911Z,-4.40
2019-01-20T05:38:03.375Z,-4.50
2019-01-20T05:38:35.848Z,-4.40
2019-01-20T05:39:08.323Z,-4.50
2019-01-20T05:39:41.097Z,-4.50
2019-01-20T05:40:14.508Z,-4.40
2019-01-20T05:40:46.983Z,-4.50
2019-01-20T05:41:19.455Z,-4.50
2019-01-20T05:41:52.273Z,-4.50
2019-01-20T05:42:25.059Z,-4.50
2019-01-20T05:42:57.559Z,-4.50
2019-01-20T05:43:30.022Z,-4.50
2019-01-20T05:44:02.503Z,-4.40
2019-01-20T05:44:35.298Z,-4.40
2019-01-20T05:45:11.330Z,-4.50
2019-01-20T05:45:43.816Z,-4.40
2019-01-20T05:46:16.290Z,-4.40
2019-01-20T05:46:48.767Z,-4.40
2019-01-20T05:47:21.222Z,-4.40
2019-01-20T05:47:53.691Z,-4.40
2019-01-20T05:48:26.190Z,-4.50
2019-01-20T05:48:58.711Z,-4.50
2019-01-20T05:49:31.166Z,-4.40
2019-01-20T05:50:04.947Z,-4.50
2019-01-20T05:50:37.807Z,-4.60
2019-01-20T05:51:10.295Z,-4.60
2019-01-20T05:51:42.763Z,-4.60
2019-01-20T05:52:15.230Z,-4.60
2019-01-20T05:52:47.716Z,-4.60
2019-01-20T05:53:20.168Z,-4.60
2019-01-20T05:53:52.679Z,-4.60
2019-01-20T05:54:25.141Z,-4.60
2019-01-20T05:54:57.629Z,-4.50
2019-01-20T05:55:30.438Z,-4.50
2019-01-20T05:56:03.229Z,-4.50
2019-01-20T05:56:35.694Z,-4.40
2019-01-20T05:57:08.303Z,-4.40
2019-01-20T05:57:40.775Z,-4.40
2019-01-20T05:58:13.906Z,-4.40
2019-01-20T05:58:46.374Z,-4.40
2019-01-20T05:59:18.897Z,-4.30
2019-01-20T05:59:51.363Z,-4.30
2019-01-20T06:00:26.788Z,-4.30
2019-01-20T06:00:59.557Z,-4.30
2019-01-20T06:01:32.713Z,-4.30
2019-01-20T06:02:05.165Z,-4.30
2019-01-20T06:02:37.643Z,-4.30
2019-01-20T06:03:10.545Z,-4.30
2019-01-20T06:03:43.015Z,-4.30
2019-01-20T06:04:15.808Z,-4.30
2019-01-20T06:04:48.312Z,-4.30
2019-01-20T06:05:21.514Z,-4.30
2019-01-20T06:05:54.415Z,-4.20
2019-01-20T06:06:27.184Z,-4.20
2019-01-20T06:06:59.655Z,-4.30
2019-01-20T06:07:32.118Z,-4.40
2019-01-20T06:08:05.355Z,-4.50
2019-01-20T06:08:37.828Z,-4.40
2019-01-20T06:09:10.302Z,-4.40
2019-01-20T06:09:43.660Z,-4.40
2019-01-20T06:10:16.158Z,-4.40
2019-01-20T06:10:48.633Z,-4.40
2019-01-20T06:11:21.114Z,-4.40
2019-01-20T06:11:53.972Z,-4.40
2019-01-20T06:12:26.770Z,-4.40
2019-01-20T06:12:59.241Z,-4.40
2019-01-20T06:13:32.021Z,-4.40
2019-01-20T06:14:04.494Z,-4.40
2019-01-20T06:14:37.344Z,-4.50
2019-01-20T06:15:12.470Z,-4.40
2019-01-20T06:15:45.276Z,-4.40
2019-01-20T06:16:17.743Z,-4.50
2019-01-20T06:16:50.230Z,-4.50
2019-01-20T06:17:22.708Z,-4.50
2019-01-20T06:17:55.484Z,-4.50
2019-01-20T06:18:27.946Z,-4.60
2019-01-20T06:19:00.420Z,-4.70
2019-01-20T06:19:32.904Z,-4.70
2019-01-20T06:20:06.649Z,-4.70
2019-01-20T06:20:39.123Z,-4.60
2019-01-20T06:21:11.982Z,-4.60
2019-01-20T06:21:44.464Z,-4.60
2019-01-20T06:22:16.930Z,-4.50
2019-01-20T06:22:49.399Z,-4.50
2019-01-20T06:23:21.869Z,-4.50
2019-01-20T06:23:54.343Z,-4.50
2019-01-20T06:24:27.164Z,-4.50
2019-01-20T06:24:59.628Z,-4.50
2019-01-20T06:25:32.094Z,-4.50
2019-01-20T06:26:05.159Z,-4.50
2019-01-20T06:26:37.663Z,-4.50
2019-01-20T06:27:10.142Z,-4.50
2019-01-20T06:27:42.656Z,-4.50
2019-01-20T06:28:15.153Z,-4.50
2019-01-20T06:28:48.012Z,-4.50
2019-01-20T06:29:20.482Z,-4.50
2019-01-20T06:29:53.252Z,-4.50
2019-01-20T06:30:28.026Z,-4.50
2019-01-20T06:31:00.809Z,-4.50
2019-01-20T06:31:33.279Z,-4.50
2019-01-20T06:32:05.905Z,-4.50
2019-01-20T06:32:38.396Z,-4.50
2019-01-20T06:33:10.872Z,-4.50
2019-01-20T06:33:43.352Z,-4.50
2019-01-20T06:34:15.824Z,-4.50
2019-01-20T06:34:48.908Z,-4.50
2019-01-20T06:35:21.386Z,-4.50
2019-01-20T06:35:54.207Z,-4.50
2019-01-20T06:36:26.931Z,-4.40
2019-01-20T06:36:59.395Z,-4.40
2019-01-20T06:37:31.891Z,-4.40
2019-01-20T06:38:04.686Z,-4.50
2019-01-20T06:38:37.177Z,-4.50
2019-01-20T06:39:09.659Z,-4.50
2019-01-20T06:39:42.136Z,-4.60
2019-01-20T06:40:15.058Z,-4.50
2019-01-20T06:40:47.523Z,-4.50
2019-01-20T06:41:20.000Z,-4.60
2019-01-20T06:41:52.470Z,-4.60
2019-01-20T06:42:24.939Z,-4.50
2019-01-20T06:43:01.620Z,-4.50
2019-01-20T06:43:32.063Z,-4.50
2019-01-20T06:44:04.547Z,-4.50
2019-01-20T06:44:37.327Z,-4.50
2019-01-20T06:45:10.126Z,-4.50
2019-01-20T06:45:42.604Z,-4.50
2019-01-20T06:46:15.072Z,-4.50
2019-01-20T06:46:47.879Z,-4.50
2019-01-20T06:47:20.358Z,-4.50
2019-01-20T06:47:52.840Z,-4.50
2019-01-20T06:48:25.676Z,-4.60
2019-01-20T06:48:58.965Z,-4.60
2019-01-20T06:49:31.452Z,-4.60
2019-01-20T06:50:06.648Z,-4.60
2019-01-20T06:50:39.415Z,-4.60
2019-01-20T06:51:11.865Z,-4.50
2019-01-20T06:51:44.352Z,-4.60
2019-01-20T06:52:16.829Z,-4.60
2019-01-20T06:52:49.304Z,-4.60
2019-01-20T06:53:22.132Z,-4.60
2019-01-20T06:53:54.621Z,-4.50
2019-01-20T06:54:27.464Z,-4.60
2019-01-20T06:54:59.914Z,-4.60
2019-01-20T06:55:32.404Z,-4.50
2019-01-20T06:56:05.255Z,-4.50
2019-01-20T06:56:37.735Z,-4.50
2019-01-20T06:57:10.189Z,-4.50
2019-01-20T06:57:42.678Z,-4.50
2019-01-20T06:58:15.598Z,-4.40
2019-01-20T06:58:48.778Z,-4.40
2019-01-20T06:59:21.283Z,-4.40
2019-01-20T06:59:53.754Z,-4.40
2019-01-20T07:00:26.223Z,-4.40
2019-01-20T07:00:58.702Z,-4.40
2019-01-20T07:01:31.438Z,-4.40